sensor_id;sensor_type;location;lat;lon;timestamp;temperature;humidity
55091;DHT22;40985;53.180;5.800;2023-07-31T00:01:05;16.20;99.90
55091;DHT22;40985;53.180;5.800;2023-07-31T00:03:30;16.10;99.90
55091;DHT22;40985;53.180;5.800;2023-07-31T00:05:56;16.20;99.90
55091;DHT22;40985;53.180;5.800;2023-07-31T00:08:22;16.20;99.90
55091;DHT22;40985;53.180;5.800;2023-07-31T00:10:50;16.20;99.90
55091;DHT22;40985;53.180;5.800;2023-07-31T00:13:16;16.10;99.90
55091;DHT22;40985;53.180;5.800;2023-07-31T00:15:42;16.20;99.90
55091;DHT22;40985;53.180;5.800;2023-07-31T00:18:07;16.20;99.90
55091;DHT22;40985;53.180;5.800;2023-07-31T00:20:33;16.10;99.90
55091;DHT22;40985;53.180;5.800;2023-07-31T00:22:58;16.10;99.90
55091;DHT22;40985;53.180;5.800;2023-07-31T00:25:24;16.20;99.90
55091;DHT22;40985;53.180;5.800;2023-07-31T00:27:50;16.00;99.90
55091;DHT22;40985;53.180;5.800;2023-07-31T00:30:15;16.00;99.90
55091;DHT22;40985;53.180;5.800;2023-07-31T00:32:41;16.20;99.90
55091;DHT22;40985;53.180;5.800;2023-07-31T00:35:07;16.20;99.90
55091;DHT22;40985;53.180;5.800;2023-07-31T00:37:33;16.00;99.90
55091;DHT22;40985;53.180;5.800;2023-07-31T00:39:58;16.20;99.90
55091;DHT22;40985;53.180;5.800;2023-07-31T00:42:24;16.20;99.90
55091;DHT22;40985;53.180;5.800;2023-07-31T00:44:50;16.20;99.90
55091;DHT22;40985;53.180;5.800;2023-07-31T00:47:15;16.00;99.90
55091;DHT22;40985;53.180;5.800;2023-07-31T00:49:41;16.00;99.90
55091;DHT22;40985;53.180;5.800;2023-07-31T00:52:08;16.10;99.90
55091;DHT22;40985;53.180;5.800;2023-07-31T00:54:34;16.00;99.90
55091;DHT22;40985;53.180;5.800;2023-07-31T00:57:00;16.10;99.90
55091;DHT22;40985;53.180;5.800;2023-07-31T00:59:25;16.10;99.90
55091;DHT22;40985;53.180;5.800;2023-07-31T01:01:51;16.00;99.90
55091;DHT22;40985;53.180;5.800;2023-07-31T01:04:17;16.10;99.90
55091;DHT22;40985;53.180;5.800;2023-07-31T01:07:11;15.80;99.90
55091;DHT22;40985;53.180;5.800;2023-07-31T01:09:47;16.00;99.90
55091;DHT22;40985;53.180;5.800;2023-07-31T01:12:16;15.90;99.90
55091;DHT22;40985;53.180;5.800;2023-07-31T01:15:06;15.90;99.90
55091;DHT22;40985;53.180;5.800;2023-07-31T01:17:32;15.80;99.90
55091;DHT22;40985;53.180;5.800;2023-07-31T01:20:01;15.70;99.90
55091;DHT22;40985;53.180;5.800;2023-07-31T01:28:05;15.70;99.90
55091;DHT22;40985;53.180;5.800;2023-07-31T01:30:36;15.80;99.90
55091;DHT22;40985;53.180;5.800;2023-07-31T01:33:03;15.60;99.90
55091;DHT22;40985;53.180;5.800;2023-07-31T01:35:36;15.70;99.90
55091;DHT22;40985;53.180;5.800;2023-07-31T01:38:02;15.60;99.90
55091;DHT22;40985;53.180;5.800;2023-07-31T01:40:28;15.70;99.90
55091;DHT22;40985;53.180;5.800;2023-07-31T01:42:54;15.80;99.90
55091;DHT22;40985;53.180;5.800;2023-07-31T01:45:19;15.80;99.90
55091;DHT22;40985;53.180;5.800;2023-07-31T01:47:45;15.80;99.90
55091;DHT22;40985;53.180;5.800;2023-07-31T01:50:11;15.60;99.90
55091;DHT22;40985;53.180;5.800;2023-07-31T01:52:38;15.60;99.90
55091;DHT22;40985;53.180;5.800;2023-07-31T01:55:04;15.50;99.90
55091;DHT22;40985;53.180;5.800;2023-07-31T01:57:29;15.70;99.90
55091;DHT22;40985;53.180;5.800;2023-07-31T01:59:55;15.60;99.90
55091;DHT22;40985;53.180;5.800;2023-07-31T02:02:21;15.50;99.90
55091;DHT22;40985;53.180;5.800;2023-07-31T02:04:48;15.50;99.90
55091;DHT22;40985;53.180;5.800;2023-07-31T02:07:14;15.70;99.90
55091;DHT22;40985;53.180;5.800;2023-07-31T02:09:40;15.60;99.90
55091;DHT22;40985;53.180;5.800;2023-07-31T02:12:06;15.50;99.90
55091;DHT22;40985;53.180;5.800;2023-07-31T02:14:34;15.60;99.90
55091;DHT22;40985;53.180;5.800;2023-07-31T02:17:00;15.60;99.90
55091;DHT22;40985;53.180;5.800;2023-07-31T02:19:25;15.40;99.90
55091;DHT22;40985;53.180;5.800;2023-07-31T02:21:51;15.60;99.90
55091;DHT22;40985;53.180;5.800;2023-07-31T02:24:17;15.60;99.90
55091;DHT22;40985;53.180;5.800;2023-07-31T02:26:42;15.60;99.90
55091;DHT22;40985;53.180;5.800;2023-07-31T02:29:08;15.40;99.90
55091;DHT22;40985;53.180;5.800;2023-07-31T02:31:34;15.60;99.90
55091;DHT22;40985;53.180;5.800;2023-07-31T02:34:00;15.50;99.90
55091;DHT22;40985;53.180;5.800;2023-07-31T02:36:25;15.40;99.90
55091;DHT22;40985;53.180;5.800;2023-07-31T02:38:51;15.40;99.90
55091;DHT22;40985;53.180;5.800;2023-07-31T02:41:17;15.50;99.90
55091;DHT22;40985;53.180;5.800;2023-07-31T02:43:42;15.50;99.90
55091;DHT22;40985;53.180;5.800;2023-07-31T02:46:08;15.50;99.90
55091;DHT22;40985;53.180;5.800;2023-07-31T02:48:34;15.40;99.90
55091;DHT22;40985;53.180;5.800;2023-07-31T02:50:59;15.60;99.90
55091;DHT22;40985;53.180;5.800;2023-07-31T02:53:25;15.20;99.90
55091;DHT22;40985;53.180;5.800;2023-07-31T02:55:51;15.30;99.90
55091;DHT22;40985;53.180;5.800;2023-07-31T02:58:16;15.30;99.90
55091;DHT22;40985;53.180;5.800;2023-07-31T03:00:43;15.40;99.90
55091;DHT22;40985;53.180;5.800;2023-07-31T03:03:08;15.40;99.90
55091;DHT22;40985;53.180;5.800;2023-07-31T03:05:34;15.20;99.90
55091;DHT22;40985;53.180;5.800;2023-07-31T03:08:00;15.20;99.90
55091;DHT22;40985;53.180;5.800;2023-07-31T03:10:25;15.30;99.90
55091;DHT22;40985;53.180;5.800;2023-07-31T03:12:51;15.30;99.90
55091;DHT22;40985;53.180;5.800;2023-07-31T03:15:17;15.10;99.90
55091;DHT22;40985;53.180;5.800;2023-07-31T03:17:42;15.10;99.90
55091;DHT22;40985;53.180;5.800;2023-07-31T03:20:08;15.10;99.90
55091;DHT22;40985;53.180;5.800;2023-07-31T03:22:34;15.20;99.90
55091;DHT22;40985;53.180;5.800;2023-07-31T03:25:01;15.20;99.90
55091;DHT22;40985;53.180;5.800;2023-07-31T03:27:27;15.20;99.90
55091;DHT22;40985;53.180;5.800;2023-07-31T03:29:53;15.10;99.90
55091;DHT22;40985;53.180;5.800;2023-07-31T03:32:18;15.20;99.90
55091;DHT22;40985;53.180;5.800;2023-07-31T03:34:44;15.10;99.90
55091;DHT22;40985;53.180;5.800;2023-07-31T03:37:10;15.30;99.90
55091;DHT22;40985;53.180;5.800;2023-07-31T03:39:35;15.30;99.90
55091;DHT22;40985;53.180;5.800;2023-07-31T03:42:01;15.20;99.90
55091;DHT22;40985;53.180;5.800;2023-07-31T03:44:27;15.10;99.90
55091;DHT22;40985;53.180;5.800;2023-07-31T03:46:52;15.20;99.90
55091;DHT22;40985;53.180;5.800;2023-07-31T03:49:18;15.10;99.90
55091;DHT22;40985;53.180;5.800;2023-07-31T03:51:44;15.30;99.90
55091;DHT22;40985;53.180;5.800;2023-07-31T03:54:10;15.20;99.90
55091;DHT22;40985;53.180;5.800;2023-07-31T03:56:35;15.20;99.90
55091;DHT22;40985;53.180;5.800;2023-07-31T03:59:01;15.20;99.90
55091;DHT22;40985;53.180;5.800;2023-07-31T04:01:27;15.10;99.90
55091;DHT22;40985;53.180;5.800;2023-07-31T04:03:52;15.20;99.90
55091;DHT22;40985;53.180;5.800;2023-07-31T04:06:18;15.30;99.90
55091;DHT22;40985;53.180;5.800;2023-07-31T04:08:44;15.10;99.90
55091;DHT22;40985;53.180;5.800;2023-07-31T04:11:11;15.20;99.90
55091;DHT22;40985;53.180;5.800;2023-07-31T04:13:37;15.20;99.90
55091;DHT22;40985;53.180;5.800;2023-07-31T04:16:03;15.30;99.90
55091;DHT22;40985;53.180;5.800;2023-07-31T04:18:29;15.50;99.90
55091;DHT22;40985;53.180;5.800;2023-07-31T04:20:57;15.50;99.90
55091;DHT22;40985;53.180;5.800;2023-07-31T04:23:24;15.50;99.90
55091;DHT22;40985;53.180;5.800;2023-07-31T04:25:50;15.50;99.90
55091;DHT22;40985;53.180;5.800;2023-07-31T04:28:15;15.60;99.90
55091;DHT22;40985;53.180;5.800;2023-07-31T04:30:41;15.70;99.90
55091;DHT22;40985;53.180;5.800;2023-07-31T04:33:07;15.60;99.90
55091;DHT22;40985;53.180;5.800;2023-07-31T04:35:33;15.50;99.90
55091;DHT22;40985;53.180;5.800;2023-07-31T04:37:58;15.70;99.90
55091;DHT22;40985;53.180;5.800;2023-07-31T04:40:24;15.50;99.90
55091;DHT22;40985;53.180;5.800;2023-07-31T04:42:50;15.80;99.90
55091;DHT22;40985;53.180;5.800;2023-07-31T04:45:15;15.50;99.90
55091;DHT22;40985;53.180;5.800;2023-07-31T04:47:41;15.50;99.90
55091;DHT22;40985;53.180;5.800;2023-07-31T04:50:07;15.50;99.90
55091;DHT22;40985;53.180;5.800;2023-07-31T04:52:33;15.90;99.90
55091;DHT22;40985;53.180;5.800;2023-07-31T04:54:58;15.60;99.90
55091;DHT22;40985;53.180;5.800;2023-07-31T04:57:24;15.50;99.90
55091;DHT22;40985;53.180;5.800;2023-07-31T04:59:50;15.40;99.90
55091;DHT22;40985;53.180;5.800;2023-07-31T05:02:15;15.60;99.90
55091;DHT22;40985;53.180;5.800;2023-07-31T05:04:41;15.80;99.90
55091;DHT22;40985;53.180;5.800;2023-07-31T05:07:07;15.70;99.90
55091;DHT22;40985;53.180;5.800;2023-07-31T05:09:32;15.50;99.90
55091;DHT22;40985;53.180;5.800;2023-07-31T05:11:58;15.70;99.90
55091;DHT22;40985;53.180;5.800;2023-07-31T05:14:25;15.80;99.90
55091;DHT22;40985;53.180;5.800;2023-07-31T05:16:51;15.70;99.90
55091;DHT22;40985;53.180;5.800;2023-07-31T05:19:16;15.60;99.90
55091;DHT22;40985;53.180;5.800;2023-07-31T05:21:42;15.90;99.90
55091;DHT22;40985;53.180;5.800;2023-07-31T05:24:07;15.80;99.90
55091;DHT22;40985;53.180;5.800;2023-07-31T05:26:33;15.70;99.90
55091;DHT22;40985;53.180;5.800;2023-07-31T05:28:59;15.70;99.90
55091;DHT22;40985;53.180;5.800;2023-07-31T05:31:25;16.00;99.90
55091;DHT22;40985;53.180;5.800;2023-07-31T05:33:51;15.70;99.90
55091;DHT22;40985;53.180;5.800;2023-07-31T05:36:17;15.80;99.90
55091;DHT22;40985;53.180;5.800;2023-07-31T05:38:42;15.70;99.90
55091;DHT22;40985;53.180;5.800;2023-07-31T05:41:12;15.70;99.90
55091;DHT22;40985;53.180;5.800;2023-07-31T05:43:38;16.00;99.90
55091;DHT22;40985;53.180;5.800;2023-07-31T05:46:04;15.90;99.90
55091;DHT22;40985;53.180;5.800;2023-07-31T05:48:29;15.90;99.90
55091;DHT22;40985;53.180;5.800;2023-07-31T05:50:55;15.70;99.90
55091;DHT22;40985;53.180;5.800;2023-07-31T05:53:21;16.10;99.90
55091;DHT22;40985;53.180;5.800;2023-07-31T05:55:46;15.90;99.90
55091;DHT22;40985;53.180;5.800;2023-07-31T05:58:12;16.10;99.90
55091;DHT22;40985;53.180;5.800;2023-07-31T06:00:37;16.10;99.90
55091;DHT22;40985;53.180;5.800;2023-07-31T06:03:03;16.10;99.90
55091;DHT22;40985;53.180;5.800;2023-07-31T06:05:29;16.20;99.90
55091;DHT22;40985;53.180;5.800;2023-07-31T06:07:56;16.00;99.90
55091;DHT22;40985;53.180;5.800;2023-07-31T06:10:21;15.80;99.90
55091;DHT22;40985;53.180;5.800;2023-07-31T06:12:47;15.80;99.90
55091;DHT22;40985;53.180;5.800;2023-07-31T06:15:13;16.30;99.90
55091;DHT22;40985;53.180;5.800;2023-07-31T06:17:38;15.90;99.90
55091;DHT22;40985;53.180;5.800;2023-07-31T06:20:06;16.00;99.90
55091;DHT22;40985;53.180;5.800;2023-07-31T06:22:32;16.00;99.90
55091;DHT22;40985;53.180;5.800;2023-07-31T06:24:58;16.40;99.90
55091;DHT22;40985;53.180;5.800;2023-07-31T06:27:24;16.40;99.90
55091;DHT22;40985;53.180;5.800;2023-07-31T06:29:49;16.50;99.90
55091;DHT22;40985;53.180;5.800;2023-07-31T06:32:15;16.30;99.90
55091;DHT22;40985;53.180;5.800;2023-07-31T06:34:41;16.00;99.90
55091;DHT22;40985;53.180;5.800;2023-07-31T06:37:06;16.20;99.90
55091;DHT22;40985;53.180;5.800;2023-07-31T06:39:32;16.30;99.90
55091;DHT22;40985;53.180;5.800;2023-07-31T06:41:58;16.00;99.90
55091;DHT22;40985;53.180;5.800;2023-07-31T06:44:23;16.00;99.90
55091;DHT22;40985;53.180;5.800;2023-07-31T06:46:49;16.00;99.90
55091;DHT22;40985;53.180;5.800;2023-07-31T06:49:15;16.40;99.90
55091;DHT22;40985;53.180;5.800;2023-07-31T06:51:41;16.30;99.90
55091;DHT22;40985;53.180;5.800;2023-07-31T06:54:08;16.10;99.90
55091;DHT22;40985;53.180;5.800;2023-07-31T06:56:34;16.30;99.90
55091;DHT22;40985;53.180;5.800;2023-07-31T06:58:59;16.40;99.90
55091;DHT22;40985;53.180;5.800;2023-07-31T07:01:25;16.60;99.90
55091;DHT22;40985;53.180;5.800;2023-07-31T07:03:51;16.30;99.90
55091;DHT22;40985;53.180;5.800;2023-07-31T07:06:17;16.30;99.90
55091;DHT22;40985;53.180;5.800;2023-07-31T07:08:43;16.60;99.90
55091;DHT22;40985;53.180;5.800;2023-07-31T07:11:09;16.80;99.90
55091;DHT22;40985;53.180;5.800;2023-07-31T07:13:34;16.80;99.90
55091;DHT22;40985;53.180;5.800;2023-07-31T07:16:00;16.70;99.90
55091;DHT22;40985;53.180;5.800;2023-07-31T07:18:26;16.50;99.90
55091;DHT22;40985;53.180;5.800;2023-07-31T07:20:52;16.70;99.90
55091;DHT22;40985;53.180;5.800;2023-07-31T07:23:18;16.40;99.90
55091;DHT22;40985;53.180;5.800;2023-07-31T07:25:45;16.40;99.90
55091;DHT22;40985;53.180;5.800;2023-07-31T07:28:11;16.50;99.90
55091;DHT22;40985;53.180;5.800;2023-07-31T07:30:37;16.90;99.90
55091;DHT22;40985;53.180;5.800;2023-07-31T07:33:02;16.70;99.90
55091;DHT22;40985;53.180;5.800;2023-07-31T07:35:28;16.80;99.90
55091;DHT22;40985;53.180;5.800;2023-07-31T07:37:54;16.90;99.90
55091;DHT22;40985;53.180;5.800;2023-07-31T07:40:20;16.80;99.90
55091;DHT22;40985;53.180;5.800;2023-07-31T07:42:46;16.90;99.90
55091;DHT22;40985;53.180;5.800;2023-07-31T07:45:12;17.20;99.90
55091;DHT22;40985;53.180;5.800;2023-07-31T07:47:40;16.80;99.90
55091;DHT22;40985;53.180;5.800;2023-07-31T07:50:06;17.10;99.90
55091;DHT22;40985;53.180;5.800;2023-07-31T07:52:32;17.20;99.90
55091;DHT22;40985;53.180;5.800;2023-07-31T07:54:58;17.10;99.90
55091;DHT22;40985;53.180;5.800;2023-07-31T07:57:23;17.10;99.90
55091;DHT22;40985;53.180;5.800;2023-07-31T07:59:49;17.30;99.90
55091;DHT22;40985;53.180;5.800;2023-07-31T08:02:15;16.90;99.90
55091;DHT22;40985;53.180;5.800;2023-07-31T08:04:40;17.10;99.90
55091;DHT22;40985;53.180;5.800;2023-07-31T08:07:06;17.30;99.90
55091;DHT22;40985;53.180;5.800;2023-07-31T08:09:32;16.90;99.90
55091;DHT22;40985;53.180;5.800;2023-07-31T08:11:57;17.10;99.90
55091;DHT22;40985;53.180;5.800;2023-07-31T08:14:27;17.00;99.90
55091;DHT22;40985;53.180;5.800;2023-07-31T08:16:53;17.40;99.90
55091;DHT22;40985;53.180;5.800;2023-07-31T08:19:19;17.30;99.90
55091;DHT22;40985;53.180;5.800;2023-07-31T08:21:44;17.50;99.90
55091;DHT22;40985;53.180;5.800;2023-07-31T08:24:10;17.50;99.90
55091;DHT22;40985;53.180;5.800;2023-07-31T08:26:36;17.50;99.90
55091;DHT22;40985;53.180;5.800;2023-07-31T08:29:02;17.60;99.90
55091;DHT22;40985;53.180;5.800;2023-07-31T08:31:27;18.10;99.90
55091;DHT22;40985;53.180;5.800;2023-07-31T08:33:55;17.70;99.90
55091;DHT22;40985;53.180;5.800;2023-07-31T08:36:21;18.00;99.90
55091;DHT22;40985;53.180;5.800;2023-07-31T08:38:46;17.90;99.90
55091;DHT22;40985;53.180;5.800;2023-07-31T08:41:12;17.90;99.90
55091;DHT22;40985;53.180;5.800;2023-07-31T08:43:39;18.10;99.90
55091;DHT22;40985;53.180;5.800;2023-07-31T08:46:05;18.00;99.90
55091;DHT22;40985;53.180;5.800;2023-07-31T08:48:32;17.80;99.90
55091;DHT22;40985;53.180;5.800;2023-07-31T08:50:58;17.80;99.90
55091;DHT22;40985;53.180;5.800;2023-07-31T08:53:24;17.90;99.90
55091;DHT22;40985;53.180;5.800;2023-07-31T08:55:52;17.80;99.90
55091;DHT22;40985;53.180;5.800;2023-07-31T08:58:18;17.80;99.90
55091;DHT22;40985;53.180;5.800;2023-07-31T09:00:46;17.90;99.90
55091;DHT22;40985;53.180;5.800;2023-07-31T09:03:13;17.90;99.90
55091;DHT22;40985;53.180;5.800;2023-07-31T09:05:42;17.80;99.90
55091;DHT22;40985;53.180;5.800;2023-07-31T09:08:09;18.00;99.90
55091;DHT22;40985;53.180;5.800;2023-07-31T09:10:35;18.00;99.90
55091;DHT22;40985;53.180;5.800;2023-07-31T09:13:02;17.80;99.90
55091;DHT22;40985;53.180;5.800;2023-07-31T09:15:28;17.90;99.90
55091;DHT22;40985;53.180;5.800;2023-07-31T09:18:02;18.00;99.90
55091;DHT22;40985;53.180;5.800;2023-07-31T09:20:28;18.10;99.90
55091;DHT22;40985;53.180;5.800;2023-07-31T09:22:55;18.20;99.90
55091;DHT22;40985;53.180;5.800;2023-07-31T09:25:22;18.20;99.90
55091;DHT22;40985;53.180;5.800;2023-07-31T09:30:15;18.00;99.90
55091;DHT22;40985;53.180;5.800;2023-07-31T09:32:42;18.30;99.90
55091;DHT22;40985;53.180;5.800;2023-07-31T09:35:20;17.90;99.90
55091;DHT22;40985;53.180;5.800;2023-07-31T09:37:51;18.20;99.90
55091;DHT22;40985;53.180;5.800;2023-07-31T09:40:38;18.20;99.90
55091;DHT22;40985;53.180;5.800;2023-07-31T09:43:06;18.30;99.90
55091;DHT22;40985;53.180;5.800;2023-07-31T09:45:34;18.10;99.90
55091;DHT22;40985;53.180;5.800;2023-07-31T09:48:02;18.20;99.90
55091;DHT22;40985;53.180;5.800;2023-07-31T09:50:28;18.50;99.90
55091;DHT22;40985;53.180;5.800;2023-07-31T09:52:55;18.20;99.90
55091;DHT22;40985;53.180;5.800;2023-07-31T09:55:20;18.30;99.90
55091;DHT22;40985;53.180;5.800;2023-07-31T09:57:48;18.40;99.90
55091;DHT22;40985;53.180;5.800;2023-07-31T10:00:16;18.40;99.90
55091;DHT22;40985;53.180;5.800;2023-07-31T10:02:45;18.50;99.90
55091;DHT22;40985;53.180;5.800;2023-07-31T10:05:14;18.50;99.90
55091;DHT22;40985;53.180;5.800;2023-07-31T10:07:52;18.40;99.90
55091;DHT22;40985;53.180;5.800;2023-07-31T10:10:20;18.40;99.90
55091;DHT22;40985;53.180;5.800;2023-07-31T10:12:52;18.60;99.90
55091;DHT22;40985;53.180;5.800;2023-07-31T10:15:18;18.70;99.90
55091;DHT22;40985;53.180;5.800;2023-07-31T10:17:47;18.80;99.90
55091;DHT22;40985;53.180;5.800;2023-07-31T10:20:14;18.80;99.90
55091;DHT22;40985;53.180;5.800;2023-07-31T10:22:42;18.80;99.90
55091;DHT22;40985;53.180;5.800;2023-07-31T10:25:09;19.10;99.90
55091;DHT22;40985;53.180;5.800;2023-07-31T10:27:38;18.90;99.90
55091;DHT22;40985;53.180;5.800;2023-07-31T10:30:06;18.80;99.90
55091;DHT22;40985;53.180;5.800;2023-07-31T10:32:33;18.60;99.90
55091;DHT22;40985;53.180;5.800;2023-07-31T10:35:01;18.50;99.90
55091;DHT22;40985;53.180;5.800;2023-07-31T10:37:38;18.50;99.90
55091;DHT22;40985;53.180;5.800;2023-07-31T10:40:05;18.30;99.90
55091;DHT22;40985;53.180;5.800;2023-07-31T10:45:04;18.60;99.90
55091;DHT22;40985;53.180;5.800;2023-07-31T10:47:30;18.70;99.90
55091;DHT22;40985;53.180;5.800;2023-07-31T10:50:38;18.50;99.90
55091;DHT22;40985;53.180;5.800;2023-07-31T10:53:03;18.50;99.90
55091;DHT22;40985;53.180;5.800;2023-07-31T10:55:38;18.50;99.90
55091;DHT22;40985;53.180;5.800;2023-07-31T10:58:12;18.50;99.90
55091;DHT22;40985;53.180;5.800;2023-07-31T11:00:39;18.60;99.90
55091;DHT22;40985;53.180;5.800;2023-07-31T11:03:09;18.60;99.90
55091;DHT22;40985;53.180;5.800;2023-07-31T11:08:27;18.50;99.90
55091;DHT22;40985;53.180;5.800;2023-07-31T11:13:32;18.20;99.90
55091;DHT22;40985;53.180;5.800;2023-07-31T11:15:58;18.00;99.90
55091;DHT22;40985;53.180;5.800;2023-07-31T11:18:25;18.30;99.90
55091;DHT22;40985;53.180;5.800;2023-07-31T11:20:51;18.30;99.90
55091;DHT22;40985;53.180;5.800;2023-07-31T11:23:17;18.50;99.90
55091;DHT22;40985;53.180;5.800;2023-07-31T11:25:43;18.30;99.90
55091;DHT22;40985;53.180;5.800;2023-07-31T11:28:12;18.70;99.90
55091;DHT22;40985;53.180;5.800;2023-07-31T11:30:38;18.70;99.90
55091;DHT22;40985;53.180;5.800;2023-07-31T11:33:06;18.50;99.90
55091;DHT22;40985;53.180;5.800;2023-07-31T11:35:33;18.40;99.90
55091;DHT22;40985;53.180;5.800;2023-07-31T11:38:00;18.40;99.90
55091;DHT22;40985;53.180;5.800;2023-07-31T11:40:26;18.80;99.90
55091;DHT22;40985;53.180;5.800;2023-07-31T11:42:58;18.80;99.90
55091;DHT22;40985;53.180;5.800;2023-07-31T11:45:26;18.80;99.90
55091;DHT22;40985;53.180;5.800;2023-07-31T11:47:55;19.00;99.90
55091;DHT22;40985;53.180;5.800;2023-07-31T11:50:22;19.20;99.90
55091;DHT22;40985;53.180;5.800;2023-07-31T11:52:49;19.20;99.90
55091;DHT22;40985;53.180;5.800;2023-07-31T11:55:16;19.10;99.90
55091;DHT22;40985;53.180;5.800;2023-07-31T11:57:43;19.20;99.90
55091;DHT22;40985;53.180;5.800;2023-07-31T12:00:11;19.10;99.90
55091;DHT22;40985;53.180;5.800;2023-07-31T12:02:39;19.00;99.90
55091;DHT22;40985;53.180;5.800;2023-07-31T12:05:10;18.80;99.90
55091;DHT22;40985;53.180;5.800;2023-07-31T12:07:52;18.70;99.90
55091;DHT22;40985;53.180;5.800;2023-07-31T12:10:22;18.80;99.90
55091;DHT22;40985;53.180;5.800;2023-07-31T12:12:59;18.70;99.90
55091;DHT22;40985;53.180;5.800;2023-07-31T12:15:36;18.80;99.90
55091;DHT22;40985;53.180;5.800;2023-07-31T12:18:07;18.70;99.90
55091;DHT22;40985;53.180;5.800;2023-07-31T12:20:33;18.90;99.90
55091;DHT22;40985;53.180;5.800;2023-07-31T12:22:59;18.80;99.90
55091;DHT22;40985;53.180;5.800;2023-07-31T12:25:30;18.80;99.90
55091;DHT22;40985;53.180;5.800;2023-07-31T12:27:56;18.70;99.90
55091;DHT22;40985;53.180;5.800;2023-07-31T12:30:48;18.80;99.90
55091;DHT22;40985;53.180;5.800;2023-07-31T12:33:14;18.80;99.90
55091;DHT22;40985;53.180;5.800;2023-07-31T12:35:43;18.70;99.90
55091;DHT22;40985;53.180;5.800;2023-07-31T12:38:09;18.80;99.90
55091;DHT22;40985;53.180;5.800;2023-07-31T12:40:38;18.80;99.90
55091;DHT22;40985;53.180;5.800;2023-07-31T12:43:04;18.90;99.90
55091;DHT22;40985;53.180;5.800;2023-07-31T12:45:31;18.80;99.90
55091;DHT22;40985;53.180;5.800;2023-07-31T12:47:59;18.70;99.90
55091;DHT22;40985;53.180;5.800;2023-07-31T12:50:26;18.60;99.90
55091;DHT22;40985;53.180;5.800;2023-07-31T12:52:53;18.80;99.90
55091;DHT22;40985;53.180;5.800;2023-07-31T12:55:19;18.70;99.90
55091;DHT22;40985;53.180;5.800;2023-07-31T12:57:45;18.70;99.90
55091;DHT22;40985;53.180;5.800;2023-07-31T13:00:11;18.80;99.90
55091;DHT22;40985;53.180;5.800;2023-07-31T13:02:38;18.90;99.90
55091;DHT22;40985;53.180;5.800;2023-07-31T13:05:04;18.90;99.90
55091;DHT22;40985;53.180;5.800;2023-07-31T13:07:30;19.10;99.90
55091;DHT22;40985;53.180;5.800;2023-07-31T13:09:56;19.00;99.90
55091;DHT22;40985;53.180;5.800;2023-07-31T13:12:21;19.00;99.90
55091;DHT22;40985;53.180;5.800;2023-07-31T13:14:47;19.10;99.90
55091;DHT22;40985;53.180;5.800;2023-07-31T13:17:13;19.20;99.90
55091;DHT22;40985;53.180;5.800;2023-07-31T13:19:38;19.30;99.90
55091;DHT22;40985;53.180;5.800;2023-07-31T13:22:04;19.30;99.90
55091;DHT22;40985;53.180;5.800;2023-07-31T13:24:30;19.40;99.90
55091;DHT22;40985;53.180;5.800;2023-07-31T13:26:56;19.40;99.90
55091;DHT22;40985;53.180;5.800;2023-07-31T13:29:22;19.50;99.90
55091;DHT22;40985;53.180;5.800;2023-07-31T13:31:49;19.50;99.90
55091;DHT22;40985;53.180;5.800;2023-07-31T13:34:14;19.40;99.90
55091;DHT22;40985;53.180;5.800;2023-07-31T13:36:40;19.50;99.90
55091;DHT22;40985;53.180;5.800;2023-07-31T13:39:07;19.60;99.90
55091;DHT22;40985;53.180;5.800;2023-07-31T13:41:33;19.70;99.90
55091;DHT22;40985;53.180;5.800;2023-07-31T13:43:58;19.50;99.90
55091;DHT22;40985;53.180;5.800;2023-07-31T13:46:24;19.50;99.90
55091;DHT22;40985;53.180;5.800;2023-07-31T13:48:51;19.40;99.90
55091;DHT22;40985;53.180;5.800;2023-07-31T13:51:20;19.40;99.90
55091;DHT22;40985;53.180;5.800;2023-07-31T13:53:45;19.40;99.90
55091;DHT22;40985;53.180;5.800;2023-07-31T13:56:11;19.30;99.90
55091;DHT22;40985;53.180;5.800;2023-07-31T13:58:37;19.20;99.90
55091;DHT22;40985;53.180;5.800;2023-07-31T14:01:02;19.10;99.90
55091;DHT22;40985;53.180;5.800;2023-07-31T14:03:28;19.00;99.90
55091;DHT22;40985;53.180;5.800;2023-07-31T14:05:55;18.90;99.90
55091;DHT22;40985;53.180;5.800;2023-07-31T14:08:21;18.90;99.90
55091;DHT22;40985;53.180;5.800;2023-07-31T14:10:47;19.00;99.90
55091;DHT22;40985;53.180;5.800;2023-07-31T14:13:12;19.00;99.90
55091;DHT22;40985;53.180;5.800;2023-07-31T14:15:39;19.00;99.90
55091;DHT22;40985;53.180;5.800;2023-07-31T14:18:05;19.00;99.90
55091;DHT22;40985;53.180;5.800;2023-07-31T14:20:30;19.00;99.90
55091;DHT22;40985;53.180;5.800;2023-07-31T14:22:56;19.00;99.90
55091;DHT22;40985;53.180;5.800;2023-07-31T14:25:22;18.90;99.90
55091;DHT22;40985;53.180;5.800;2023-07-31T14:27:47;18.90;99.90
55091;DHT22;40985;53.180;5.800;2023-07-31T14:30:13;18.90;99.90
55091;DHT22;40985;53.180;5.800;2023-07-31T14:32:39;18.90;99.90
55091;DHT22;40985;53.180;5.800;2023-07-31T14:35:04;18.80;99.90
55091;DHT22;40985;53.180;5.800;2023-07-31T14:37:41;18.80;99.90
55091;DHT22;40985;53.180;5.800;2023-07-31T14:40:11;18.70;99.90
55091;DHT22;40985;53.180;5.800;2023-07-31T14:42:38;18.70;99.90
55091;DHT22;40985;53.180;5.800;2023-07-31T14:45:05;18.70;99.90
55091;DHT22;40985;53.180;5.800;2023-07-31T14:47:31;18.70;99.90
55091;DHT22;40985;53.180;5.800;2023-07-31T14:49:57;18.50;99.90
55091;DHT22;40985;53.180;5.800;2023-07-31T14:52:23;18.50;99.90
55091;DHT22;40985;53.180;5.800;2023-07-31T14:54:49;18.50;99.90
55091;DHT22;40985;53.180;5.800;2023-07-31T14:57:14;18.50;99.90
55091;DHT22;40985;53.180;5.800;2023-07-31T14:59:40;18.40;99.90
55091;DHT22;40985;53.180;5.800;2023-07-31T15:02:07;18.40;99.90
55091;DHT22;40985;53.180;5.800;2023-07-31T15:04:34;18.30;99.90
55091;DHT22;40985;53.180;5.800;2023-07-31T15:06:59;18.30;99.90
55091;DHT22;40985;53.180;5.800;2023-07-31T15:09:25;18.40;99.90
55091;DHT22;40985;53.180;5.800;2023-07-31T15:11:51;18.40;99.90
55091;DHT22;40985;53.180;5.800;2023-07-31T15:14:16;18.40;99.90
55091;DHT22;40985;53.180;5.800;2023-07-31T15:16:42;18.40;99.90
55091;DHT22;40985;53.180;5.800;2023-07-31T15:19:08;18.40;99.90
55091;DHT22;40985;53.180;5.800;2023-07-31T15:21:36;18.50;99.90
55091;DHT22;40985;53.180;5.800;2023-07-31T15:24:02;18.40;99.90
55091;DHT22;40985;53.180;5.800;2023-07-31T15:26:27;18.40;99.90
55091;DHT22;40985;53.180;5.800;2023-07-31T15:29:05;18.60;99.90
55091;DHT22;40985;53.180;5.800;2023-07-31T15:31:41;18.60;99.90
55091;DHT22;40985;53.180;5.800;2023-07-31T15:34:07;18.40;99.90
55091;DHT22;40985;53.180;5.800;2023-07-31T15:36:33;18.50;99.90
55091;DHT22;40985;53.180;5.800;2023-07-31T15:38:59;18.50;99.90
55091;DHT22;40985;53.180;5.800;2023-07-31T15:41:24;18.40;99.90
55091;DHT22;40985;53.180;5.800;2023-07-31T15:43:51;18.50;99.90